Time,TemperatureF,DewpointF,PressureIn,WindDirection,WindDirectionDegrees,WindSpeedMPH,WindSpeedGustMPH,Humidity,HourlyPrecipIn,Conditions,Clouds,dailyrainin,SoftwareType,DateUTC
2013-03-25 00:03:00,30.0,28.0,29.67,NW,308,9.0,13.0,93,0.01,,,0.08,,2013-03-25 05:03:00,
2013-03-25 00:12:00,30.0,28.0,29.67,NW,308,9.0,13.0,93,0.01,,,0.08,,2013-03-25 05:12:00,
2013-03-25 00:22:00,30.0,28.0,29.67,NW,308,9.0,13.0,93,0.01,,,0.08,,2013-03-25 05:22:00,
2013-03-25 00:32:00,30.0,28.0,29.68,NW,326,7.0,13.0,94,0.00,,,0.08,,2013-03-25 05:32:00,
2013-03-25 00:42:00,30.0,28.0,29.68,NW,326,7.0,13.0,94,0.00,,,0.08,,2013-03-25 05:42:00,
2013-03-25 00:52:00,30.0,28.0,29.68,NW,326,7.0,13.0,94,0.00,,,0.08,,2013-03-25 05:52:00,
2013-03-25 01:02:00,30.0,28.0,29.69,WNW,299,8.0,11.0,94,0.00,,,0.08,,2013-03-25 06:02:00,
2013-03-25 01:12:00,30.0,28.0,29.69,WNW,299,8.0,11.0,94,0.00,,,0.08,,2013-03-25 06:12:00,
2013-03-25 01:22:00,30.0,28.0,29.69,WNW,299,8.0,11.0,94,0.00,,,0.08,,2013-03-25 06:22:00,
2013-03-25 01:32:00,30.0,28.0,29.70,WNW,297,9.0,17.0,94,0.00,,,0.08,,2013-03-25 06:32:00,
2013-03-25 01:42:00,30.0,28.0,29.70,WNW,297,9.0,17.0,94,0.00,,,0.08,,2013-03-25 06:42:00,
2013-03-25 01:52:00,30.0,28.0,29.70,WNW,297,9.0,17.0,94,0.00,,,0.08,,2013-03-25 06:52:00,
2013-03-25 02:02:00,30.0,28.0,29.70,WNW,293,10.0,16.0,94,0.00,,,0.08,,2013-03-25 07:02:00,
2013-03-25 02:12:00,30.0,28.0,29.70,WNW,293,10.0,16.0,94,0.00,,,0.08,,2013-03-25 07:12:00,
2013-03-25 02:22:00,30.0,28.0,29.70,WNW,293,10.0,16.0,94,0.00,,,0.08,,2013-03-25 07:22:00,
2013-03-25 02:32:00,30.0,28.0,29.71,WNW,294,9.0,16.0,94,0.00,,,0.08,,2013-03-25 07:32:00,
2013-03-25 02:42:00,30.0,28.0,29.71,WNW,294,9.0,16.0,94,0.00,,,0.08,,2013-03-25 07:42:00,
2013-03-25 02:53:00,30.0,28.0,29.71,WNW,294,9.0,16.0,94,0.00,,,0.08,,2013-03-25 07:53:00,
2013-03-25 03:02:00,30.0,28.0,29.71,WNW,298,9.0,18.0,94,0.00,,,0.08,,2013-03-25 08:02:00,
2013-03-25 03:12:00,30.0,28.0,29.71,WNW,298,9.0,18.0,94,0.00,,,0.08,,2013-03-25 08:12:00,
2013-03-25 03:22:00,30.0,28.0,29.71,WNW,298,9.0,18.0,94,0.00,,,0.08,,2013-03-25 08:22:00,
2013-03-25 03:32:00,29.0,27.0,29.71,NW,308,10.0,20.0,94,0.00,,,0.08,,2013-03-25 08:32:00,
2013-03-25 03:43:00,29.0,27.0,29.71,NW,308,10.0,20.0,94,0.00,,,0.08,,2013-03-25 08:43:00,
2013-03-25 03:52:00,29.0,27.0,29.71,NW,308,10.0,20.0,94,0.00,,,0.08,,2013-03-25 08:52:00,
2013-03-25 04:02:00,29.0,27.0,29.71,NW,308,8.0,15.0,94,0.00,,,0.08,,2013-03-25 09:02:00,
2013-03-25 04:12:00,29.0,27.0,29.71,NW,308,8.0,15.0,94,0.00,,,0.08,,2013-03-25 09:12:00,
2013-03-25 04:22:00,29.0,27.0,29.71,NW,308,8.0,15.0,94,0.00,,,0.08,,2013-03-25 09:22:00,
2013-03-25 04:33:00,29.0,27.0,29.72,WNW,295,11.0,17.0,94,0.00,,,0.08,,2013-03-25 09:33:00,
2013-03-25 04:43:00,29.0,27.0,29.72,WNW,295,11.0,17.0,94,0.00,,,0.08,,2013-03-25 09:43:00,
2013-03-25 04:53:00,29.0,27.0,29.72,WNW,295,11.0,17.0,94,0.00,,,0.08,,2013-03-25 09:53:00,
2013-03-25 05:03:00,29.0,27.0,29.72,West,278,11.0,19.0,94,0.00,,,0.08,,2013-03-25 10:03:00,
2013-03-25 05:12:00,29.0,27.0,29.72,West,278,11.0,19.0,94,0.00,,,0.08,,2013-03-25 10:12:00,
2013-03-25 05:22:00,29.0,27.0,29.72,West,278,11.0,19.0,94,0.00,,,0.08,,2013-03-25 10:22:00,
2013-03-25 05:32:00,28.0,27.0,29.73,NW,306,9.0,16.0,94,0.00,,,0.08,,2013-03-25 10:32:00,
2013-03-25 05:43:00,28.0,27.0,29.73,NW,306,9.0,16.0,94,0.00,,,0.08,,2013-03-25 10:43:00,
2013-03-25 05:54:00,28.0,27.0,29.73,NW,306,9.0,16.0,94,0.00,,,0.08,,2013-03-25 10:54:00,
2013-03-25 06:03:00,28.0,27.0,29.74,WNW,293,8.0,16.0,94,0.00,,,0.08,,2013-03-25 11:03:00,
2013-03-25 06:12:00,28.0,27.0,29.74,WNW,293,8.0,16.0,94,0.00,,,0.08,,2013-03-25 11:12:00,
2013-03-25 06:23:00,28.0,27.0,29.74,WNW,293,8.0,16.0,94,0.00,,,0.08,,2013-03-25 11:23:00,
2013-03-25 06:32:00,28.0,26.0,29.75,WNW,296,11.0,16.0,93,0.00,,,0.08,,2013-03-25 11:32:00,
2013-03-25 06:42:00,28.0,26.0,29.75,WNW,296,11.0,16.0,93,0.00,,,0.08,,2013-03-25 11:42:00,
2013-03-25 06:53:00,28.0,26.0,29.75,WNW,296,11.0,16.0,93,0.00,,,0.08,,2013-03-25 11:53:00,
2013-03-25 07:02:00,28.0,26.0,29.76,West,281,12.0,17.0,93,0.00,,,0.08,,2013-03-25 12:02:00,
2013-03-25 07:13:00,28.0,26.0,29.76,West,281,12.0,17.0,93,0.00,,,0.08,,2013-03-25 12:13:00,
2013-03-25 07:23:00,28.0,26.0,29.76,West,281,12.0,17.0,93,0.00,,,0.08,,2013-03-25 12:23:00,
2013-03-25 07:32:00,27.0,25.0,29.78,WNW,285,9.0,17.0,93,0.00,,,0.08,,2013-03-25 12:32:00,
2013-03-25 07:43:00,27.0,25.0,29.78,WNW,285,9.0,17.0,93,0.00,,,0.08,,2013-03-25 12:43:00,
2013-03-25 07:53:00,27.0,25.0,29.78,WNW,285,9.0,17.0,93,0.00,,,0.08,,2013-03-25 12:53:00,
2013-03-25 08:02:00,27.0,25.0,29.78,West,281,13.0,20.0,93,0.00,,,0.08,,2013-03-25 13:02:00,
2013-03-25 08:13:00,27.0,25.0,29.78,West,281,13.0,20.0,93,0.00,,,0.08,,2013-03-25 13:13:00,
2013-03-25 08:22:00,27.0,25.0,29.78,West,281,13.0,20.0,93,0.00,,,0.08,,2013-03-25 13:22:00,
2013-03-25 08:32:00,27.0,25.0,29.80,WNW,292,9.0,17.0,93,0.00,,,0.08,,2013-03-25 13:32:00,
2013-03-25 08:43:00,27.0,25.0,29.80,WNW,292,9.0,17.0,93,0.00,,,0.08,,2013-03-25 13:43:00,
2013-03-25 08:52:00,27.0,25.0,29.80,WNW,292,9.0,17.0,93,0.00,,,0.08,,2013-03-25 13:52:00,
2013-03-25 09:03:00,28.0,26.0,29.82,West,279,13.0,22.0,93,0.00,,,0.08,,2013-03-25 14:03:00,
2013-03-25 09:12:00,28.0,26.0,29.82,West,279,13.0,22.0,93,0.00,,,0.08,,2013-03-25 14:12:00,
2013-03-25 09:22:00,28.0,26.0,29.82,West,279,13.0,22.0,93,0.00,,,0.08,,2013-03-25 14:22:00,
2013-03-25 09:32:00,28.0,26.0,29.83,WNW,302,10.0,18.0,93,0.00,,,0.08,,2013-03-25 14:32:00,
2013-03-25 09:43:00,28.0,26.0,29.83,WNW,302,10.0,18.0,93,0.00,,,0.08,,2013-03-25 14:43:00,
2013-03-25 09:53:00,28.0,26.0,29.83,WNW,302,10.0,18.0,93,0.00,,,0.08,,2013-03-25 14:53:00,
2013-03-25 10:02:00,28.0,26.0,29.84,NW,321,9.0,18.0,93,0.00,,,0.08,,2013-03-25 15:02:00,
2013-03-25 10:13:00,28.0,26.0,29.84,NW,321,9.0,18.0,93,0.00,,,0.08,,2013-03-25 15:13:00,
2013-03-25 10:23:00,28.0,26.0,29.84,NW,321,9.0,18.0,93,0.00,,,0.08,,2013-03-25 15:23:00,
2013-03-25 10:32:00,29.0,27.0,29.85,NW,304,9.0,17.0,93,0.00,,,0.08,,2013-03-25 15:32:00,
2013-03-25 10:43:00,29.0,27.0,29.85,NW,304,9.0,17.0,93,0.00,,,0.08,,2013-03-25 15:43:00,
2013-03-25 10:53:00,29.0,27.0,29.85,NW,304,9.0,17.0,93,0.00,,,0.08,,2013-03-25 15:53:00,
2013-03-25 11:03:00,29.0,27.0,29.86,WNW,296,11.0,23.0,92,0.00,,,0.08,,2013-03-25 16:03:00,
2013-03-25 11:12:00,29.0,27.0,29.86,WNW,296,11.0,23.0,92,0.00,,,0.08,,2013-03-25 16:12:00,
2013-03-25 11:23:00,29.0,27.0,29.86,WNW,296,11.0,23.0,92,0.00,,,0.08,,2013-03-25 16:23:00,
2013-03-25 11:33:00,29.0,27.0,29.86,WNW,296,11.0,23.0,92,0.00,,,0.08,,2013-03-25 16:33:00,
2013-03-25 12:02:00,30.0,27.0,29.88,WNW,299,11.0,20.0,90,0.00,,,0.08,,2013-03-25 17:02:00,
2013-03-25 12:12:00,30.0,27.0,29.88,WNW,299,11.0,20.0,90,0.00,,,0.08,,2013-03-25 17:12:00,
2013-03-25 12:23:00,30.0,27.0,29.88,WNW,299,11.0,20.0,90,0.00,,,0.08,,2013-03-25 17:23:00,
2013-03-25 12:33:00,30.0,27.0,29.90,WNW,292,13.0,23.0,88,0.01,,,0.07,,2013-03-25 17:33:00,
2013-03-25 12:43:00,30.0,27.0,29.90,WNW,292,13.0,23.0,88,0.01,,,0.07,,2013-03-25 17:43:00,
2013-03-25 12:53:00,30.0,27.0,29.90,WNW,292,13.0,23.0,88,0.01,,,0.07,,2013-03-25 17:53:00,
2013-03-25 13:03:00,30.0,27.0,29.90,West,281,14.0,23.0,88,0.02,,,0.08,,2013-03-25 18:03:00,
2013-03-25 13:12:00,30.0,27.0,29.90,West,281,14.0,23.0,88,0.02,,,0.08,,2013-03-25 18:12:00,
2013-03-25 13:23:00,30.0,27.0,29.90,West,281,14.0,23.0,88,0.02,,,0.08,,2013-03-25 18:23:00,
2013-03-25 13:33:00,30.0,27.0,29.91,WNW,285,8.0,18.0,88,0.02,,,0.09,,2013-03-25 18:33:00,
2013-03-25 13:43:00,30.0,27.0,29.91,WNW,285,8.0,18.0,88,0.02,,,0.09,,2013-03-25 18:43:00,
2013-03-25 13:53:00,30.0,27.0,29.91,WNW,285,8.0,18.0,88,0.02,,,0.09,,2013-03-25 18:53:00,
2013-03-25 14:03:00,30.0,27.0,29.91,WNW,295,8.0,19.0,87,0.02,,,0.10,,2013-03-25 19:03:00,
2013-03-25 14:13:00,30.0,27.0,29.91,WNW,295,8.0,19.0,87,0.02,,,0.10,,2013-03-25 19:13:00,
2013-03-25 14:23:00,30.0,27.0,29.91,WNW,295,8.0,19.0,87,0.02,,,0.10,,2013-03-25 19:23:00,
2013-03-25 14:33:00,31.0,27.0,29.92,WNW,289,8.0,16.0,86,0.01,,,0.10,,2013-03-25 19:33:00,
2013-03-25 14:43:00,31.0,27.0,29.92,WNW,289,8.0,16.0,86,0.01,,,0.10,,2013-03-25 19:43:00,
2013-03-25 14:52:00,31.0,27.0,29.92,WNW,289,8.0,16.0,86,0.01,,,0.10,,2013-03-25 19:52:00,
2013-03-25 15:02:00,31.0,27.0,29.93,WNW,299,10.0,14.0,86,0.02,,,0.12,,2013-03-25 20:02:00,
2013-03-25 15:12:00,31.0,27.0,29.93,WNW,299,10.0,14.0,86,0.02,,,0.12,,2013-03-25 20:12:00,
2013-03-25 15:22:00,31.0,27.0,29.93,WNW,299,10.0,14.0,86,0.02,,,0.12,,2013-03-25 20:22:00,
2013-03-25 15:32:00,31.0,27.0,29.94,WNW,297,9.0,19.0,85,0.03,,,0.13,,2013-03-25 20:32:00,
2013-03-25 15:42:00,31.0,27.0,29.94,WNW,297,9.0,19.0,85,0.03,,,0.13,,2013-03-25 20:42:00,
2013-03-25 15:52:00,31.0,27.0,29.94,WNW,297,9.0,19.0,85,0.03,,,0.13,,2013-03-25 20:52:00,
2013-03-25 16:02:00,32.0,28.0,29.95,West,266,9.0,15.0,85,0.02,,,0.14,,2013-03-25 21:02:00,
2013-03-25 16:12:00,32.0,28.0,29.95,West,266,9.0,15.0,85,0.02,,,0.14,,2013-03-25 21:12:00,
2013-03-25 16:22:00,32.0,28.0,29.95,West,266,9.0,15.0,85,0.02,,,0.14,,2013-03-25 21:22:00,
2013-03-25 16:33:00,32.0,28.0,29.96,WNW,299,9.0,14.0,84,0.01,,,0.13,,2013-03-25 21:33:00,
2013-03-25 16:43:00,32.0,28.0,29.96,WNW,299,9.0,14.0,84,0.01,,,0.13,,2013-03-25 21:43:00,
2013-03-25 16:52:00,32.0,28.0,29.96,WNW,299,9.0,14.0,84,0.01,,,0.13,,2013-03-25 21:52:00,
2013-03-25 17:03:00,33.0,28.0,29.97,WSW,252,9.0,17.0,83,0.01,,,0.14,,2013-03-25 22:03:00,
2013-03-25 17:12:00,33.0,28.0,29.97,WSW,252,9.0,17.0,83,0.01,,,0.14,,2013-03-25 22:12:00,
2013-03-25 17:23:00,33.0,28.0,29.97,WSW,252,9.0,17.0,83,0.01,,,0.14,,2013-03-25 22:23:00,
2013-03-25 17:33:00,33.0,28.0,29.98,NW,308,9.0,13.0,83,0.02,,,0.15,,2013-03-25 22:33:00,
2013-03-25 17:43:00,33.0,28.0,29.98,NW,308,9.0,13.0,83,0.02,,,0.15,,2013-03-25 22:43:00,
2013-03-25 17:52:00,33.0,28.0,29.98,NW,308,9.0,13.0,83,0.02,,,0.15,,2013-03-25 22:52:00,
2013-03-25 18:03:00,33.0,28.0,30.00,WNW,294,9.0,15.0,82,0.02,,,0.16,,2013-03-25 23:03:00,
2013-03-25 18:12:00,33.0,28.0,30.00,WNW,294,9.0,15.0,82,0.02,,,0.16,,2013-03-25 23:12:00,
2013-03-25 18:23:00,33.0,28.0,30.00,WNW,294,9.0,15.0,82,0.02,,,0.16,,2013-03-25 23:23:00,
2013-03-25 18:32:00,33.0,28.0,30.01,WNW,286,7.0,12.0,82,0.02,,,0.16,,2013-03-25 23:32:00,
2013-03-25 18:43:00,33.0,28.0,30.01,WNW,286,7.0,12.0,82,0.02,,,0.16,,2013-03-25 23:43:00,
2013-03-25 18:53:00,33.0,28.0,30.01,WNW,286,7.0,12.0,82,0.02,,,0.16,,2013-03-25 23:53:00,
2013-03-25 19:02:00,33.0,28.0,30.03,WNW,295,8.0,14.0,81,0.01,,,0.16,,2013-03-26 00:02:00,
2013-03-25 19:12:00,33.0,28.0,30.03,WNW,295,8.0,14.0,81,0.01,,,0.16,,2013-03-26 00:12:00,
2013-03-25 19:22:00,33.0,28.0,30.03,WNW,295,8.0,14.0,81,0.01,,,0.16,,2013-03-26 00:22:00,
2013-03-25 19:32:00,33.0,28.0,30.04,WNW,288,7.0,14.0,80,0.00,,,0.14,,2013-03-26 00:32:00,
2013-03-25 19:43:00,33.0,28.0,30.04,WNW,288,7.0,14.0,80,0.00,,,0.14,,2013-03-26 00:43:00,
2013-03-25 19:52:00,33.0,28.0,30.04,WNW,288,7.0,14.0,80,0.00,,,0.14,,2013-03-26 00:52:00,
2013-03-25 20:02:00,32.0,27.0,30.06,West,281,8.0,16.0,80,0.01,,,0.15,,2013-03-26 01:02:00,
2013-03-25 20:12:00,32.0,27.0,30.06,West,281,8.0,16.0,80,0.01,,,0.15,,2013-03-26 01:12:00,
2013-03-25 20:22:00,32.0,27.0,30.06,West,281,8.0,16.0,80,0.01,,,0.15,,2013-03-26 01:22:00,
2013-03-25 20:32:00,32.0,27.0,30.07,WNW,295,9.0,13.0,83,0.01,,,0.15,,2013-03-26 01:32:00,
2013-03-25 20:42:00,32.0,27.0,30.07,WNW,295,9.0,13.0,83,0.01,,,0.15,,2013-03-26 01:42:00,
2013-03-25 20:52:00,32.0,27.0,30.07,WNW,295,9.0,13.0,83,0.01,,,0.15,,2013-03-26 01:52:00,
2013-03-25 21:02:00,32.0,28.0,30.08,WNW,291,5.0,8.0,85,0.00,,,0.15,,2013-03-26 02:02:00,
2013-03-25 21:12:00,32.0,28.0,30.08,WNW,291,5.0,8.0,85,0.00,,,0.15,,2013-03-26 02:12:00,
2013-03-25 21:22:00,32.0,28.0,30.08,WNW,291,5.0,8.0,85,0.00,,,0.15,,2013-03-26 02:22:00,
2013-03-25 21:32:00,31.0,27.0,30.08,WNW,283,6.0,12.0,85,0.00,,,0.14,,2013-03-26 02:32:00,
2013-03-25 21:43:00,31.0,27.0,30.08,WNW,283,6.0,12.0,85,0.00,,,0.14,,2013-03-26 02:43:00,
2013-03-25 21:52:00,31.0,27.0,30.08,WNW,283,6.0,12.0,85,0.00,,,0.14,,2013-03-26 02:52:00,
2013-03-25 22:02:00,31.0,28.0,30.09,WNW,301,6.0,12.0,87,0.00,,,0.14,,2013-03-26 03:02:00,
2013-03-25 22:12:00,31.0,28.0,30.09,WNW,301,6.0,12.0,87,0.00,,,0.14,,2013-03-26 03:12:00,
2013-03-25 22:22:00,31.0,28.0,30.09,WNW,301,6.0,12.0,87,0.00,,,0.14,,2013-03-26 03:22:00,
2013-03-25 22:33:00,31.0,27.0,30.09,WNW,295,6.0,12.0,86,0.00,,,0.14,,2013-03-26 03:33:00,
2013-03-25 22:43:00,31.0,27.0,30.09,WNW,295,6.0,12.0,86,0.00,,,0.14,,2013-03-26 03:43:00,
2013-03-25 22:53:00,31.0,27.0,30.09,WNW,295,6.0,12.0,86,0.00,,,0.14,,2013-03-26 03:53:00,
2013-03-25 23:03:00,31.0,26.0,30.10,WNW,291,8.0,14.0,83,0.00,,,0.14,,2013-03-26 04:03:00,
2013-03-25 23:12:00,31.0,26.0,30.10,WNW,291,8.0,14.0,83,0.00,,,0.14,,2013-03-26 04:12:00,
2013-03-25 23:23:00,31.0,26.0,30.10,WNW,291,8.0,14.0,83,0.00,,,0.14,,2013-03-26 04:23:00,
2013-03-25 23:32:00,31.0,26.0,30.11,WNW,297,6.0,13.0,83,0.00,,,0.13,,2013-03-26 04:32:00,
2013-03-25 23:43:00,31.0,26.0,30.11,WNW,297,6.0,13.0,83,0.00,,,0.13,,2013-03-26 04:43:00,
2013-03-25 23:53:00,31.0,26.0,30.11,WNW,297,6.0,13.0,83,0.00,,,0.13,,2013-03-26 04:53:00,